sensor_id;sensor_type;location;lat;lon;timestamp;temperature;humidity
19330;DHT22;9799;48.214;16.388;2023-04-30T00:03:18;13.40;99.90
19330;DHT22;9799;48.214;16.388;2023-04-30T00:06:39;13.30;99.90
19330;DHT22;9799;48.214;16.388;2023-04-30T00:10:01;13.30;99.90
19330;DHT22;9799;48.214;16.388;2023-04-30T00:13:24;13.30;99.90
19330;DHT22;9799;48.214;16.388;2023-04-30T00:16:45;13.20;99.90
19330;DHT22;9799;48.214;16.388;2023-04-30T00:20:07;13.20;99.90
19330;DHT22;9799;48.214;16.388;2023-04-30T00:23:28;13.10;99.90
19330;DHT22;9799;48.214;16.388;2023-04-30T00:26:51;13.00;99.90
19330;DHT22;9799;48.214;16.388;2023-04-30T00:30:12;13.00;99.90
19330;DHT22;9799;48.214;16.388;2023-04-30T00:33:33;13.00;99.90
19330;DHT22;9799;48.214;16.388;2023-04-30T00:36:54;13.10;99.90
19330;DHT22;9799;48.214;16.388;2023-04-30T00:40:15;13.10;99.90
19330;DHT22;9799;48.214;16.388;2023-04-30T00:43:38;13.10;99.90
19330;DHT22;9799;48.214;16.388;2023-04-30T00:46:59;13.10;99.90
19330;DHT22;9799;48.214;16.388;2023-04-30T00:50:21;12.90;99.90
19330;DHT22;9799;48.214;16.388;2023-04-30T00:53:43;12.90;99.90
19330;DHT22;9799;48.214;16.388;2023-04-30T00:57:04;12.90;99.90
19330;DHT22;9799;48.214;16.388;2023-04-30T01:00:29;12.90;99.90
19330;DHT22;9799;48.214;16.388;2023-04-30T01:03:50;12.80;99.90
19330;DHT22;9799;48.214;16.388;2023-04-30T01:07:11;12.80;99.90
19330;DHT22;9799;48.214;16.388;2023-04-30T01:10:40;12.80;99.90
19330;DHT22;9799;48.214;16.388;2023-04-30T01:14:06;12.90;99.90
19330;DHT22;9799;48.214;16.388;2023-04-30T01:17:34;12.80;99.90
19330;DHT22;9799;48.214;16.388;2023-04-30T01:21:01;12.90;99.90
19330;DHT22;9799;48.214;16.388;2023-04-30T01:24:36;12.90;99.90
19330;DHT22;9799;48.214;16.388;2023-04-30T01:28:05;12.90;99.90
19330;DHT22;9799;48.214;16.388;2023-04-30T01:31:27;12.90;99.90
19330;DHT22;9799;48.214;16.388;2023-04-30T01:34:48;12.90;99.90
19330;DHT22;9799;48.214;16.388;2023-04-30T01:38:17;12.80;99.90
19330;DHT22;9799;48.214;16.388;2023-04-30T01:41:49;12.70;99.90
19330;DHT22;9799;48.214;16.388;2023-04-30T01:45:21;12.70;99.90
19330;DHT22;9799;48.214;16.388;2023-04-30T01:48:52;12.70;99.90
19330;DHT22;9799;48.214;16.388;2023-04-30T01:52:18;12.80;99.90
19330;DHT22;9799;48.214;16.388;2023-04-30T01:55:42;12.70;99.90
19330;DHT22;9799;48.214;16.388;2023-04-30T01:59:04;12.70;99.90
19330;DHT22;9799;48.214;16.388;2023-04-30T02:02:27;12.80;99.90
19330;DHT22;9799;48.214;16.388;2023-04-30T02:05:49;12.80;99.90
19330;DHT22;9799;48.214;16.388;2023-04-30T02:09:10;12.80;99.90
19330;DHT22;9799;48.214;16.388;2023-04-30T02:12:31;12.70;99.90
19330;DHT22;9799;48.214;16.388;2023-04-30T02:15:52;12.70;99.90
19330;DHT22;9799;48.214;16.388;2023-04-30T02:19:15;12.70;99.90
19330;DHT22;9799;48.214;16.388;2023-04-30T02:22:36;12.70;99.90
19330;DHT22;9799;48.214;16.388;2023-04-30T02:25:57;12.70;99.90
19330;DHT22;9799;48.214;16.388;2023-04-30T02:29:18;12.70;99.90
19330;DHT22;9799;48.214;16.388;2023-04-30T02:32:39;12.70;99.90
19330;DHT22;9799;48.214;16.388;2023-04-30T02:36:02;12.80;99.90
19330;DHT22;9799;48.214;16.388;2023-04-30T02:39:23;12.70;99.90
19330;DHT22;9799;48.214;16.388;2023-04-30T02:42:45;12.80;99.90
19330;DHT22;9799;48.214;16.388;2023-04-30T02:46:06;12.70;99.90
19330;DHT22;9799;48.214;16.388;2023-04-30T02:49:28;12.70;99.90
19330;DHT22;9799;48.214;16.388;2023-04-30T02:52:50;12.80;99.90
19330;DHT22;9799;48.214;16.388;2023-04-30T02:56:11;12.70;99.90
19330;DHT22;9799;48.214;16.388;2023-04-30T02:59:33;12.70;99.90
19330;DHT22;9799;48.214;16.388;2023-04-30T03:02:54;12.70;99.90
19330;DHT22;9799;48.214;16.388;2023-04-30T03:06:15;12.70;99.90
19330;DHT22;9799;48.214;16.388;2023-04-30T03:09:38;12.60;99.90
19330;DHT22;9799;48.214;16.388;2023-04-30T03:12:59;12.60;99.90
19330;DHT22;9799;48.214;16.388;2023-04-30T03:16:20;12.70;99.90
19330;DHT22;9799;48.214;16.388;2023-04-30T03:19:41;12.70;99.90
19330;DHT22;9799;48.214;16.388;2023-04-30T03:23:03;12.70;99.90
19330;DHT22;9799;48.214;16.388;2023-04-30T03:26:25;12.70;99.90
19330;DHT22;9799;48.214;16.388;2023-04-30T03:29:46;12.70;99.90
19330;DHT22;9799;48.214;16.388;2023-04-30T03:33:07;12.70;99.90
19330;DHT22;9799;48.214;16.388;2023-04-30T03:36:29;12.70;99.90
19330;DHT22;9799;48.214;16.388;2023-04-30T03:39:50;12.60;99.90
19330;DHT22;9799;48.214;16.388;2023-04-30T03:43:12;12.60;99.90
19330;DHT22;9799;48.214;16.388;2023-04-30T03:46:34;12.60;99.90
19330;DHT22;9799;48.214;16.388;2023-04-30T03:49:55;12.60;99.90
19330;DHT22;9799;48.214;16.388;2023-04-30T03:53:16;12.60;99.90
19330;DHT22;9799;48.214;16.388;2023-04-30T03:56:37;12.60;99.90
19330;DHT22;9799;48.214;16.388;2023-04-30T04:00:01;12.60;99.90
19330;DHT22;9799;48.214;16.388;2023-04-30T04:03:23;12.60;99.90
19330;DHT22;9799;48.214;16.388;2023-04-30T04:06:44;12.60;99.90
19330;DHT22;9799;48.214;16.388;2023-04-30T04:10:06;12.60;99.90
19330;DHT22;9799;48.214;16.388;2023-04-30T04:13:27;12.60;99.90
19330;DHT22;9799;48.214;16.388;2023-04-30T04:16:50;12.60;99.90
19330;DHT22;9799;48.214;16.388;2023-04-30T04:20:11;12.60;99.90
19330;DHT22;9799;48.214;16.388;2023-04-30T04:23:33;12.70;99.90
19330;DHT22;9799;48.214;16.388;2023-04-30T04:26:54;12.70;99.90
19330;DHT22;9799;48.214;16.388;2023-04-30T04:30:15;12.70;99.90
19330;DHT22;9799;48.214;16.388;2023-04-30T04:33:38;12.70;99.90
19330;DHT22;9799;48.214;16.388;2023-04-30T04:36:59;12.80;99.90
19330;DHT22;9799;48.214;16.388;2023-04-30T04:40:20;12.80;99.90
19330;DHT22;9799;48.214;16.388;2023-04-30T04:43:41;12.90;99.90
19330;DHT22;9799;48.214;16.388;2023-04-30T04:47:02;13.00;99.90
19330;DHT22;9799;48.214;16.388;2023-04-30T04:50:25;13.00;99.90
19330;DHT22;9799;48.214;16.388;2023-04-30T04:53:46;13.00;99.90
19330;DHT22;9799;48.214;16.388;2023-04-30T04:57:08;12.90;99.90
19330;DHT22;9799;48.214;16.388;2023-04-30T05:00:29;12.90;99.90
19330;DHT22;9799;48.214;16.388;2023-04-30T05:03:50;12.90;99.90
19330;DHT22;9799;48.214;16.388;2023-04-30T05:07:13;13.00;99.90
19330;DHT22;9799;48.214;16.388;2023-04-30T05:10:34;13.10;99.90
19330;DHT22;9799;48.214;16.388;2023-04-30T05:13:56;13.10;99.90
19330;DHT22;9799;48.214;16.388;2023-04-30T05:17:17;13.20;99.90
19330;DHT22;9799;48.214;16.388;2023-04-30T05:20:38;13.00;99.90
19330;DHT22;9799;48.214;16.388;2023-04-30T05:24:01;13.00;99.90
19330;DHT22;9799;48.214;16.388;2023-04-30T05:27:22;13.10;99.90
19330;DHT22;9799;48.214;16.388;2023-04-30T05:30:43;13.00;99.90
19330;DHT22;9799;48.214;16.388;2023-04-30T05:34:05;13.20;99.90
19330;DHT22;9799;48.214;16.388;2023-04-30T05:37:26;13.50;99.90
19330;DHT22;9799;48.214;16.388;2023-04-30T05:40:48;13.50;99.90
19330;DHT22;9799;48.214;16.388;2023-04-30T05:44:10;13.50;99.90
19330;DHT22;9799;48.214;16.388;2023-04-30T05:47:31;13.50;99.90
19330;DHT22;9799;48.214;16.388;2023-04-30T05:50:52;13.50;99.90
19330;DHT22;9799;48.214;16.388;2023-04-30T05:54:13;13.50;99.90
19330;DHT22;9799;48.214;16.388;2023-04-30T05:57:36;13.40;99.90
19330;DHT22;9799;48.214;16.388;2023-04-30T06:00:58;13.30;99.90
19330;DHT22;9799;48.214;16.388;2023-04-30T06:04:19;13.30;99.90
19330;DHT22;9799;48.214;16.388;2023-04-30T06:07:40;13.20;99.90
19330;DHT22;9799;48.214;16.388;2023-04-30T06:11:01;13.30;99.90
19330;DHT22;9799;48.214;16.388;2023-04-30T06:14:25;13.40;99.90
19330;DHT22;9799;48.214;16.388;2023-04-30T06:17:46;13.60;99.90
19330;DHT22;9799;48.214;16.388;2023-04-30T06:21:07;13.80;99.90
19330;DHT22;9799;48.214;16.388;2023-04-30T06:24:29;14.10;99.90
19330;DHT22;9799;48.214;16.388;2023-04-30T06:27:50;14.30;99.90
19330;DHT22;9799;48.214;16.388;2023-04-30T06:31:14;14.40;99.90
19330;DHT22;9799;48.214;16.388;2023-04-30T06:34:35;14.50;99.90
19330;DHT22;9799;48.214;16.388;2023-04-30T06:37:56;14.40;99.90
19330;DHT22;9799;48.214;16.388;2023-04-30T06:41:18;14.20;99.90
19330;DHT22;9799;48.214;16.388;2023-04-30T06:44:39;14.10;99.90
19330;DHT22;9799;48.214;16.388;2023-04-30T06:48:02;14.30;99.90
19330;DHT22;9799;48.214;16.388;2023-04-30T06:51:23;14.20;99.90
19330;DHT22;9799;48.214;16.388;2023-04-30T06:54:45;14.10;99.90
19330;DHT22;9799;48.214;16.388;2023-04-30T06:58:06;14.20;99.90
19330;DHT22;9799;48.214;16.388;2023-04-30T07:01:27;14.40;99.90
19330;DHT22;9799;48.214;16.388;2023-04-30T07:04:50;14.40;99.90
19330;DHT22;9799;48.214;16.388;2023-04-30T07:08:11;14.30;99.90
19330;DHT22;9799;48.214;16.388;2023-04-30T07:11:34;14.30;99.90
19330;DHT22;9799;48.214;16.388;2023-04-30T07:14:55;14.40;99.90
19330;DHT22;9799;48.214;16.388;2023-04-30T07:18:16;14.40;99.90
19330;DHT22;9799;48.214;16.388;2023-04-30T07:21:39;14.30;99.90
19330;DHT22;9799;48.214;16.388;2023-04-30T07:25:00;14.40;99.90
19330;DHT22;9799;48.214;16.388;2023-04-30T07:28:22;14.60;99.90
19330;DHT22;9799;48.214;16.388;2023-04-30T07:31:43;14.70;99.90
19330;DHT22;9799;48.214;16.388;2023-04-30T07:35:04;14.70;99.90
19330;DHT22;9799;48.214;16.388;2023-04-30T07:38:27;14.80;99.90
19330;DHT22;9799;48.214;16.388;2023-04-30T07:41:48;15.00;99.90
19330;DHT22;9799;48.214;16.388;2023-04-30T07:45:10;15.00;99.90
19330;DHT22;9799;48.214;16.388;2023-04-30T07:48:32;14.90;99.90
19330;DHT22;9799;48.214;16.388;2023-04-30T07:51:53;15.00;99.90
19330;DHT22;9799;48.214;16.388;2023-04-30T07:55:16;15.10;99.90
19330;DHT22;9799;48.214;16.388;2023-04-30T07:58:37;15.00;99.90
19330;DHT22;9799;48.214;16.388;2023-04-30T08:01:58;15.20;99.90
19330;DHT22;9799;48.214;16.388;2023-04-30T08:05:20;15.20;99.90
19330;DHT22;9799;48.214;16.388;2023-04-30T08:08:41;15.00;99.90
19330;DHT22;9799;48.214;16.388;2023-04-30T08:12:04;15.00;99.90
19330;DHT22;9799;48.214;16.388;2023-04-30T08:15:25;14.80;99.90
19330;DHT22;9799;48.214;16.388;2023-04-30T08:18:47;14.70;99.90
19330;DHT22;9799;48.214;16.388;2023-04-30T08:22:08;14.80;99.90
19330;DHT22;9799;48.214;16.388;2023-04-30T08:25:29;14.80;99.90
19330;DHT22;9799;48.214;16.388;2023-04-30T08:28:52;14.90;99.90
19330;DHT22;9799;48.214;16.388;2023-04-30T08:32:13;14.90;99.90
19330;DHT22;9799;48.214;16.388;2023-04-30T08:35:34;14.90;99.90
19330;DHT22;9799;48.214;16.388;2023-04-30T08:38:56;14.90;99.90
19330;DHT22;9799;48.214;16.388;2023-04-30T08:42:18;14.90;99.90
19330;DHT22;9799;48.214;16.388;2023-04-30T08:45:42;14.80;99.90
19330;DHT22;9799;48.214;16.388;2023-04-30T08:49:04;14.60;99.90
19330;DHT22;9799;48.214;16.388;2023-04-30T08:52:25;14.60;99.90
19330;DHT22;9799;48.214;16.388;2023-04-30T08:55:48;14.50;99.90
19330;DHT22;9799;48.214;16.388;2023-04-30T08:59:09;14.50;99.90
19330;DHT22;9799;48.214;16.388;2023-04-30T09:02:33;14.60;99.90
19330;DHT22;9799;48.214;16.388;2023-04-30T09:05:54;14.40;99.90
19330;DHT22;9799;48.214;16.388;2023-04-30T09:09:15;14.60;99.90
19330;DHT22;9799;48.214;16.388;2023-04-30T09:12:37;14.80;99.90
19330;DHT22;9799;48.214;16.388;2023-04-30T09:15:58;15.00;99.90
19330;DHT22;9799;48.214;16.388;2023-04-30T09:19:26;14.90;99.90
19330;DHT22;9799;48.214;16.388;2023-04-30T09:22:47;14.90;99.90
19330;DHT22;9799;48.214;16.388;2023-04-30T09:26:18;15.10;99.90
19330;DHT22;9799;48.214;16.388;2023-04-30T09:29:40;15.40;99.90
19330;DHT22;9799;48.214;16.388;2023-04-30T09:33:02;15.50;99.90
19330;DHT22;9799;48.214;16.388;2023-04-30T09:36:25;15.60;99.90
19330;DHT22;9799;48.214;16.388;2023-04-30T09:39:48;15.50;99.90
19330;DHT22;9799;48.214;16.388;2023-04-30T09:43:09;15.80;99.90
19330;DHT22;9799;48.214;16.388;2023-04-30T09:46:31;15.90;99.90
19330;DHT22;9799;48.214;16.388;2023-04-30T09:49:53;16.00;99.90
19330;DHT22;9799;48.214;16.388;2023-04-30T09:53:16;16.20;99.90
19330;DHT22;9799;48.214;16.388;2023-04-30T09:56:38;16.30;99.90
19330;DHT22;9799;48.214;16.388;2023-04-30T09:59:59;16.20;99.90
19330;DHT22;9799;48.214;16.388;2023-04-30T10:03:21;16.20;99.90
19330;DHT22;9799;48.214;16.388;2023-04-30T10:06:44;16.10;99.90
19330;DHT22;9799;48.214;16.388;2023-04-30T10:10:09;16.40;99.90
19330;DHT22;9799;48.214;16.388;2023-04-30T10:13:32;16.70;99.90
19330;DHT22;9799;48.214;16.388;2023-04-30T10:16:58;16.70;99.90
19330;DHT22;9799;48.214;16.388;2023-04-30T10:20:23;16.60;99.90
19330;DHT22;9799;48.214;16.388;2023-04-30T10:23:46;16.60;99.90
19330;DHT22;9799;48.214;16.388;2023-04-30T10:27:09;16.80;99.90
19330;DHT22;9799;48.214;16.388;2023-04-30T10:30:32;17.10;99.90
19330;DHT22;9799;48.214;16.388;2023-04-30T10:34:02;17.10;99.90
19330;DHT22;9799;48.214;16.388;2023-04-30T10:37:33;17.10;99.90
19330;DHT22;9799;48.214;16.388;2023-04-30T10:40:55;17.20;99.90
19330;DHT22;9799;48.214;16.388;2023-04-30T10:44:22;17.10;99.90
19330;DHT22;9799;48.214;16.388;2023-04-30T10:47:46;17.40;99.90
19330;DHT22;9799;48.214;16.388;2023-04-30T10:51:07;17.60;99.90
19330;DHT22;9799;48.214;16.388;2023-04-30T10:54:31;17.70;99.90
19330;DHT22;9799;48.214;16.388;2023-04-30T10:57:53;17.60;99.90
19330;DHT22;9799;48.214;16.388;2023-04-30T11:01:16;18.00;99.90
19330;DHT22;9799;48.214;16.388;2023-04-30T11:05:10;17.90;99.90
19330;DHT22;9799;48.214;16.388;2023-04-30T11:08:33;18.30;99.90
19330;DHT22;9799;48.214;16.388;2023-04-30T11:12:01;17.70;99.90
19330;DHT22;9799;48.214;16.388;2023-04-30T11:15:25;17.60;99.90
19330;DHT22;9799;48.214;16.388;2023-04-30T11:18:50;17.40;99.90
19330;DHT22;9799;48.214;16.388;2023-04-30T11:22:16;16.90;99.90
19330;DHT22;9799;48.214;16.388;2023-04-30T11:25:42;16.80;99.90
19330;DHT22;9799;48.214;16.388;2023-04-30T11:29:04;16.80;99.90
19330;DHT22;9799;48.214;16.388;2023-04-30T11:32:30;16.60;99.90
19330;DHT22;9799;48.214;16.388;2023-04-30T11:35:55;16.50;99.90
19330;DHT22;9799;48.214;16.388;2023-04-30T11:39:17;16.40;99.90
19330;DHT22;9799;48.214;16.388;2023-04-30T11:42:40;16.40;99.90
19330;DHT22;9799;48.214;16.388;2023-04-30T11:46:05;16.30;99.90
19330;DHT22;9799;48.214;16.388;2023-04-30T11:49:27;16.20;99.90
19330;DHT22;9799;48.214;16.388;2023-04-30T11:52:50;16.30;99.90
19330;DHT22;9799;48.214;16.388;2023-04-30T11:56:11;16.30;99.90
19330;DHT22;9799;48.214;16.388;2023-04-30T11:59:39;16.30;99.90
19330;DHT22;9799;48.214;16.388;2023-04-30T12:03:01;16.50;99.90
19330;DHT22;9799;48.214;16.388;2023-04-30T12:06:24;16.40;99.90
19330;DHT22;9799;48.214;16.388;2023-04-30T12:09:52;16.60;99.90
19330;DHT22;9799;48.214;16.388;2023-04-30T12:13:14;16.50;99.90
19330;DHT22;9799;48.214;16.388;2023-04-30T12:16:40;16.40;99.90
19330;DHT22;9799;48.214;16.388;2023-04-30T12:20:03;16.40;99.90
19330;DHT22;9799;48.214;16.388;2023-04-30T12:23:25;16.50;99.90
19330;DHT22;9799;48.214;16.388;2023-04-30T12:26:47;16.60;99.90
19330;DHT22;9799;48.214;16.388;2023-04-30T12:30:09;17.10;99.90
19330;DHT22;9799;48.214;16.388;2023-04-30T12:33:30;17.20;99.90
19330;DHT22;9799;48.214;16.388;2023-04-30T12:36:52;17.60;99.90
19330;DHT22;9799;48.214;16.388;2023-04-30T12:40:13;17.60;99.90
19330;DHT22;9799;48.214;16.388;2023-04-30T12:43:36;17.40;99.90
19330;DHT22;9799;48.214;16.388;2023-04-30T12:46:57;17.20;99.90
19330;DHT22;9799;48.214;16.388;2023-04-30T12:50:21;16.90;99.90
19330;DHT22;9799;48.214;16.388;2023-04-30T12:53:44;16.70;99.90
19330;DHT22;9799;48.214;16.388;2023-04-30T12:57:07;16.70;99.90
19330;DHT22;9799;48.214;16.388;2023-04-30T13:00:45;16.90;99.90
19330;DHT22;9799;48.214;16.388;2023-04-30T13:04:07;17.00;99.90
19330;DHT22;9799;48.214;16.388;2023-04-30T13:07:36;16.90;99.90
19330;DHT22;9799;48.214;16.388;2023-04-30T13:10:58;16.80;99.90
19330;DHT22;9799;48.214;16.388;2023-04-30T13:14:19;16.70;99.90
19330;DHT22;9799;48.214;16.388;2023-04-30T13:17:42;17.20;99.90
19330;DHT22;9799;48.214;16.388;2023-04-30T13:21:03;17.20;99.90
19330;DHT22;9799;48.214;16.388;2023-04-30T13:24:24;17.10;99.90
19330;DHT22;9799;48.214;16.388;2023-04-30T13:27:45;17.70;99.90
19330;DHT22;9799;48.214;16.388;2023-04-30T13:31:07;17.90;98.80
19330;DHT22;9799;48.214;16.388;2023-04-30T13:34:29;17.40;99.90
19330;DHT22;9799;48.214;16.388;2023-04-30T13:37:50;17.70;99.90
19330;DHT22;9799;48.214;16.388;2023-04-30T13:41:12;17.80;99.90
19330;DHT22;9799;48.214;16.388;2023-04-30T13:44:33;17.60;99.90
19330;DHT22;9799;48.214;16.388;2023-04-30T13:47:55;17.80;99.90
19330;DHT22;9799;48.214;16.388;2023-04-30T13:51:18;17.60;99.80
19330;DHT22;9799;48.214;16.388;2023-04-30T13:54:39;17.70;99.40
19330;DHT22;9799;48.214;16.388;2023-04-30T13:58:01;17.60;98.30
19330;DHT22;9799;48.214;16.388;2023-04-30T14:01:22;17.80;98.50
19330;DHT22;9799;48.214;16.388;2023-04-30T14:04:43;17.60;98.30
19330;DHT22;9799;48.214;16.388;2023-04-30T14:08:06;17.40;98.00
19330;DHT22;9799;48.214;16.388;2023-04-30T14:11:27;17.30;98.40
19330;DHT22;9799;48.214;16.388;2023-04-30T14:14:48;17.50;98.30
19330;DHT22;9799;48.214;16.388;2023-04-30T14:18:09;17.60;98.00
19330;DHT22;9799;48.214;16.388;2023-04-30T14:21:30;17.80;97.80
19330;DHT22;9799;48.214;16.388;2023-04-30T14:24:53;18.20;98.00
19330;DHT22;9799;48.214;16.388;2023-04-30T14:28:14;18.00;98.80
19330;DHT22;9799;48.214;16.388;2023-04-30T14:31:36;17.70;99.90
19330;DHT22;9799;48.214;16.388;2023-04-30T14:34:57;17.40;99.90
19330;DHT22;9799;48.214;16.388;2023-04-30T14:38:18;17.30;99.90
19330;DHT22;9799;48.214;16.388;2023-04-30T14:41:40;17.20;99.90
19330;DHT22;9799;48.214;16.388;2023-04-30T14:45:02;17.30;99.90
19330;DHT22;9799;48.214;16.388;2023-04-30T14:48:23;17.30;99.90
19330;DHT22;9799;48.214;16.388;2023-04-30T14:51:45;17.40;99.10
19330;DHT22;9799;48.214;16.388;2023-04-30T14:55:06;17.10;99.40
19330;DHT22;9799;48.214;16.388;2023-04-30T14:58:29;17.40;99.60
19330;DHT22;9799;48.214;16.388;2023-04-30T15:01:50;17.80;99.00
19330;DHT22;9799;48.214;16.388;2023-04-30T15:05:12;18.00;96.00
19330;DHT22;9799;48.214;16.388;2023-04-30T15:08:33;18.10;96.10
19330;DHT22;9799;48.214;16.388;2023-04-30T15:11:54;17.60;96.30
19330;DHT22;9799;48.214;16.388;2023-04-30T15:15:17;17.50;94.80
19330;DHT22;9799;48.214;16.388;2023-04-30T15:18:40;17.40;94.10
19330;DHT22;9799;48.214;16.388;2023-04-30T15:22:01;17.50;93.80
19330;DHT22;9799;48.214;16.388;2023-04-30T15:25:23;17.70;95.80
19330;DHT22;9799;48.214;16.388;2023-04-30T15:28:44;17.80;93.60
19330;DHT22;9799;48.214;16.388;2023-04-30T15:32:06;17.90;93.20
19330;DHT22;9799;48.214;16.388;2023-04-30T15:35:27;17.90;94.00
19330;DHT22;9799;48.214;16.388;2023-04-30T15:38:49;18.00;93.60
19330;DHT22;9799;48.214;16.388;2023-04-30T15:42:10;18.00;94.40
19330;DHT22;9799;48.214;16.388;2023-04-30T15:45:31;17.60;95.90
19330;DHT22;9799;48.214;16.388;2023-04-30T15:48:54;17.40;95.60
19330;DHT22;9799;48.214;16.388;2023-04-30T15:52:16;17.40;96.40
19330;DHT22;9799;48.214;16.388;2023-04-30T15:55:37;17.20;98.00
19330;DHT22;9799;48.214;16.388;2023-04-30T15:58:58;17.00;97.40
19330;DHT22;9799;48.214;16.388;2023-04-30T16:02:19;17.00;98.20
19330;DHT22;9799;48.214;16.388;2023-04-30T16:05:42;17.00;97.20
19330;DHT22;9799;48.214;16.388;2023-04-30T16:09:03;16.90;96.40
19330;DHT22;9799;48.214;16.388;2023-04-30T16:12:26;17.00;96.30
19330;DHT22;9799;48.214;16.388;2023-04-30T16:15:47;17.00;96.30
19330;DHT22;9799;48.214;16.388;2023-04-30T16:19:09;16.90;96.90
19330;DHT22;9799;48.214;16.388;2023-04-30T16:22:32;16.80;96.50
19330;DHT22;9799;48.214;16.388;2023-04-30T16:25:54;16.80;97.20
19330;DHT22;9799;48.214;16.388;2023-04-30T16:29:15;16.80;97.90
19330;DHT22;9799;48.214;16.388;2023-04-30T16:32:36;16.80;98.10
19330;DHT22;9799;48.214;16.388;2023-04-30T16:35:57;16.70;98.00
19330;DHT22;9799;48.214;16.388;2023-04-30T16:39:20;16.70;98.80
19330;DHT22;9799;48.214;16.388;2023-04-30T16:42:41;16.70;99.00
19330;DHT22;9799;48.214;16.388;2023-04-30T16:46:03;16.70;97.90
19330;DHT22;9799;48.214;16.388;2023-04-30T16:49:25;16.80;98.10
19330;DHT22;9799;48.214;16.388;2023-04-30T16:52:46;16.90;98.50
19330;DHT22;9799;48.214;16.388;2023-04-30T16:56:09;16.90;97.60
19330;DHT22;9799;48.214;16.388;2023-04-30T16:59:30;16.90;99.10
19330;DHT22;9799;48.214;16.388;2023-04-30T17:02:51;16.90;97.90
19330;DHT22;9799;48.214;16.388;2023-04-30T17:06:13;16.90;98.30
19330;DHT22;9799;48.214;16.388;2023-04-30T17:09:34;16.80;97.90
19330;DHT22;9799;48.214;16.388;2023-04-30T17:12:57;16.80;98.70
19330;DHT22;9799;48.214;16.388;2023-04-30T17:16:20;16.70;98.50
19330;DHT22;9799;48.214;16.388;2023-04-30T17:19:41;16.70;98.50
19330;DHT22;9799;48.214;16.388;2023-04-30T17:23:03;16.60;98.20
19330;DHT22;9799;48.214;16.388;2023-04-30T17:26:24;16.70;98.60
19330;DHT22;9799;48.214;16.388;2023-04-30T17:29:47;16.60;99.00
19330;DHT22;9799;48.214;16.388;2023-04-30T17:33:09;16.60;98.50
19330;DHT22;9799;48.214;16.388;2023-04-30T17:36:30;16.60;98.90
19330;DHT22;9799;48.214;16.388;2023-04-30T17:39:53;16.60;99.30
19330;DHT22;9799;48.214;16.388;2023-04-30T17:43:16;16.50;99.60
19330;DHT22;9799;48.214;16.388;2023-04-30T17:46:39;16.50;99.40
19330;DHT22;9799;48.214;16.388;2023-04-30T17:50:00;16.50;99.90
19330;DHT22;9799;48.214;16.388;2023-04-30T17:53:27;16.40;99.80
19330;DHT22;9799;48.214;16.388;2023-04-30T17:56:50;16.50;99.90
19330;DHT22;9799;48.214;16.388;2023-04-30T18:00:13;16.50;99.90
19330;DHT22;9799;48.214;16.388;2023-04-30T18:03:37;16.50;99.90
19330;DHT22;9799;48.214;16.388;2023-04-30T18:06:58;16.40;99.90
19330;DHT22;9799;48.214;16.388;2023-04-30T18:10:20;16.30;99.90
19330;DHT22;9799;48.214;16.388;2023-04-30T18:13:42;16.30;99.90
19330;DHT22;9799;48.214;16.388;2023-04-30T18:17:03;16.40;99.90
19330;DHT22;9799;48.214;16.388;2023-04-30T18:20:26;16.40;99.90
19330;DHT22;9799;48.214;16.388;2023-04-30T18:23:47;16.20;99.90
19330;DHT22;9799;48.214;16.388;2023-04-30T18:27:09;16.20;99.90
19330;DHT22;9799;48.214;16.388;2023-04-30T18:30:30;16.20;99.90
19330;DHT22;9799;48.214;16.388;2023-04-30T18:33:53;16.20;99.90
19330;DHT22;9799;48.214;16.388;2023-04-30T18:37:16;16.20;99.90
19330;DHT22;9799;48.214;16.388;2023-04-30T18:40:38;16.10;99.90
19330;DHT22;9799;48.214;16.388;2023-04-30T18:43:59;16.10;99.90
19330;DHT22;9799;48.214;16.388;2023-04-30T18:47:20;16.10;99.90
19330;DHT22;9799;48.214;16.388;2023-04-30T18:50:41;16.00;99.90
19330;DHT22;9799;48.214;16.388;2023-04-30T18:54:04;16.10;99.90
19330;DHT22;9799;48.214;16.388;2023-04-30T18:57:25;16.00;99.90
19330;DHT22;9799;48.214;16.388;2023-04-30T19:00:47;16.00;99.90
19330;DHT22;9799;48.214;16.388;2023-04-30T19:04:09;15.90;99.90
19330;DHT22;9799;48.214;16.388;2023-04-30T19:07:34;15.80;99.90
19330;DHT22;9799;48.214;16.388;2023-04-30T19:10:58;15.80;99.90
19330;DHT22;9799;48.214;16.388;2023-04-30T19:14:20;15.80;99.90
19330;DHT22;9799;48.214;16.388;2023-04-30T19:17:41;15.70;99.90
19330;DHT22;9799;48.214;16.388;2023-04-30T19:21:03;15.60;99.90
19330;DHT22;9799;48.214;16.388;2023-04-30T19:24:24;15.60;99.90
19330;DHT22;9799;48.214;16.388;2023-04-30T19:27:47;15.50;99.90
19330;DHT22;9799;48.214;16.388;2023-04-30T19:31:09;15.50;99.90
19330;DHT22;9799;48.214;16.388;2023-04-30T19:34:33;15.50;99.90
19330;DHT22;9799;48.214;16.388;2023-04-30T19:37:54;15.50;99.90
19330;DHT22;9799;48.214;16.388;2023-04-30T19:41:16;15.50;99.90
19330;DHT22;9799;48.214;16.388;2023-04-30T19:44:39;15.40;99.90
19330;DHT22;9799;48.214;16.388;2023-04-30T19:48:02;15.30;99.90
19330;DHT22;9799;48.214;16.388;2023-04-30T19:51:25;15.30;99.90
19330;DHT22;9799;48.214;16.388;2023-04-30T19:54:49;15.20;99.90
19330;DHT22;9799;48.214;16.388;2023-04-30T19:58:12;15.20;99.90
19330;DHT22;9799;48.214;16.388;2023-04-30T20:01:38;15.20;99.90
19330;DHT22;9799;48.214;16.388;2023-04-30T20:05:00;15.10;99.90
19330;DHT22;9799;48.214;16.388;2023-04-30T20:08:23;15.10;99.90
19330;DHT22;9799;48.214;16.388;2023-04-30T20:11:45;15.00;99.90
19330;DHT22;9799;48.214;16.388;2023-04-30T20:15:10;14.90;99.90
19330;DHT22;9799;48.214;16.388;2023-04-30T20:18:32;14.80;99.90
19330;DHT22;9799;48.214;16.388;2023-04-30T20:21:54;14.80;99.90
19330;DHT22;9799;48.214;16.388;2023-04-30T20:25:15;14.80;99.90
19330;DHT22;9799;48.214;16.388;2023-04-30T20:28:37;14.90;99.90
19330;DHT22;9799;48.214;16.388;2023-04-30T20:31:58;14.80;99.90
19330;DHT22;9799;48.214;16.388;2023-04-30T20:35:21;14.80;99.90
19330;DHT22;9799;48.214;16.388;2023-04-30T20:38:42;14.80;99.90
19330;DHT22;9799;48.214;16.388;2023-04-30T20:42:03;14.80;99.90
19330;DHT22;9799;48.214;16.388;2023-04-30T20:45:25;14.70;99.90
19330;DHT22;9799;48.214;16.388;2023-04-30T20:48:47;14.70;99.90
19330;DHT22;9799;48.214;16.388;2023-04-30T20:52:09;14.70;99.90
19330;DHT22;9799;48.214;16.388;2023-04-30T20:55:31;14.60;99.90
19330;DHT22;9799;48.214;16.388;2023-04-30T20:58:52;14.50;99.90
19330;DHT22;9799;48.214;16.388;2023-04-30T21:02:14;14.50;99.90
19330;DHT22;9799;48.214;16.388;2023-04-30T21:05:36;14.40;99.90
19330;DHT22;9799;48.214;16.388;2023-04-30T21:08:58;14.40;99.90
19330;DHT22;9799;48.214;16.388;2023-04-30T21:12:19;14.40;99.90
19330;DHT22;9799;48.214;16.388;2023-04-30T21:15:41;14.30;99.90
19330;DHT22;9799;48.214;16.388;2023-04-30T21:19:03;14.20;99.90